Reynoldsville, Illinois
Current Conditions -  °F | °C
As of 6:05 AM on Friday 24 Oct 2014 (Local Time) from KCGI Reporting Station
Scattered Clouds Scattered Clouds  
Wind Chill: 48°   Ceiling: Unl
Heat Index: 48°   Visibility: 10mi
Dew Point: 46°   Wind: 0mph
Humidity: 93%   Direction: NA
Pressure: 30.13"   Gusts: NA
Location:  37.4256°N, 89.3457°W
Report Text: KCGI 241105Z AUTO 00000KT 10SM SCT025 09/08 A3013 RMK AO2 TSNO
Loading
Personal Weather Stations






























Interactive Weather Map
Tropical Storm Tracking
New forecast layout! Learn more

10-Day Weather Forecast

Advertisements
Track Severe Weather on mobile